Time;durP1;ratioP1;P1;durP2;ratioP2;P2;SDS_P1;SDS_P2;PMS_P1;PMS_P2;Temp;Humidity;BMP_temperature;BMP_pressure;BME280_temperature;BME280_humidity;BME280_pressure;Samples;Min_cycle;Max_cycle;Signal;HPM_P1;HPM_P2
2023/04/18 00:02:27;;;;;;;20.40;16.27;;;;;;;;;;5079236;28;20415;-82
2023/04/18 00:04:55;;;;;;;19.00;15.82;;;;;;;;;;5077321;28;20426;-83
2023/04/18 00:07:21;;;;;;;19.77;15.75;;;;;;;;;;5078551;28;20458;-82
2023/04/18 00:09:49;;;;;;;20.73;15.68;;;;;;;;;;5081557;28;20421;-83
2023/04/18 00:12:16;;;;;;;18.60;14.63;;;;;;;;;;5082006;28;20433;-83
2023/04/18 00:14:43;;;;;;;17.33;14.80;;;;;;;;;;5063746;28;20438;-82
2023/04/18 00:17:09;;;;;;;19.63;14.98;;;;;;;;;;5080787;28;20418;-83
2023/04/18 00:19:37;;;;;;;22.80;16.00;;;;;;;;;;5079549;28;20969;-83
2023/04/18 00:22:03;;;;;;;21.02;15.80;;;;;;;;;;5085195;28;20472;-83
2023/04/18 00:24:30;;;;;;;20.95;15.25;;;;;;;;;;5076158;28;20788;-83
2023/04/18 00:26:58;;;;;;;20.10;15.80;;;;;;;;;;5079803;28;20418;-82
2023/04/18 00:29:24;;;;;;;20.13;14.50;;;;;;;;;;5081314;28;20931;-83
2023/04/18 00:31:50;;;;;;;19.63;15.63;;;;;;;;;;5076526;28;20426;-83
2023/04/18 00:34:17;;;;;;;21.00;15.32;;;;;;;;;;5081605;28;20422;-83
2023/04/18 00:36:43;;;;;;;19.05;14.85;;;;;;;;;;5083851;28;20412;-83
2023/04/18 00:39:09;;;;;;;20.77;15.15;;;;;;;;;;5080210;28;20412;-83
2023/04/18 00:41:36;;;;;;;19.58;14.65;;;;;;;;;;5082748;28;20972;-83
2023/04/18 00:44:05;;;;;;;18.98;14.23;;;;;;;;;;5077567;28;20414;-82
2023/04/18 00:46:32;;;;;;;18.90;14.70;;;;;;;;;;5075971;28;20921;-83
2023/04/18 00:48:59;;;;;;;21.43;15.07;;;;;;;;;;5074494;28;20438;-83
2023/04/18 00:51:26;;;;;;;18.35;14.20;;;;;;;;;;5076933;28;20439;-83
2023/04/18 00:53:53;;;;;;;19.35;14.30;;;;;;;;;;5063647;28;20946;-83
2023/04/18 00:56:20;;;;;;;20.35;14.98;;;;;;;;;;5073794;28;20448;-83
2023/04/18 00:58:46;;;;;;;20.73;15.75;;;;;;;;;;5080237;28;20419;-83
2023/04/18 01:01:14;;;;;;;18.73;15.00;;;;;;;;;;5075915;28;20779;-82
2023/04/18 01:03:40;;;;;;;21.85;15.70;;;;;;;;;;5076516;28;20422;-83
2023/04/18 01:06:07;;;;;;;21.60;15.73;;;;;;;;;;5077462;28;20423;-83
2023/04/18 01:08:33;;;;;;;23.15;17.35;;;;;;;;;;5073655;28;20424;-83
2023/04/18 01:11:00;;;;;;;22.85;17.58;;;;;;;;;;5078332;28;20428;-83
2023/04/18 01:13:26;;;;;;;24.85;17.70;;;;;;;;;;5075613;28;20434;-83
2023/04/18 01:15:53;;;;;;;25.65;17.90;;;;;;;;;;5079434;28;20531;-83
2023/04/18 01:18:21;;;;;;;25.77;18.20;;;;;;;;;;5076829;28;20449;-83
2023/04/18 01:20:48;;;;;;;25.53;18.37;;;;;;;;;;5078613;28;20411;-83
2023/04/18 01:23:16;;;;;;;24.17;17.48;;;;;;;;;;5075916;28;20415;-83
2023/04/18 01:25:43;;;;;;;24.00;17.83;;;;;;;;;;5077102;28;20421;-83
2023/04/18 01:28:10;;;;;;;26.10;19.58;;;;;;;;;;5078438;28;20408;-82
2023/04/18 01:30:37;;;;;;;27.75;18.63;;;;;;;;;;5079370;28;20425;-82
2023/04/18 01:33:04;;;;;;;24.10;18.38;;;;;;;;;;5074510;28;20410;-83
2023/04/18 01:35:31;;;;;;;25.58;19.17;;;;;;;;;;5076862;28;20839;-82
2023/04/18 01:37:57;;;;;;;27.80;19.02;;;;;;;;;;5078801;28;20415;-83
2023/04/18 01:40:24;;;;;;;24.80;16.95;;;;;;;;;;5077892;28;20418;-83
2023/04/18 01:42:51;;;;;;;29.02;18.90;;;;;;;;;;5069304;28;20406;-83
2023/04/18 01:45:19;;;;;;;26.60;18.50;;;;;;;;;;5075951;28;20420;-83
2023/04/18 01:47:45;;;;;;;27.00;19.17;;;;;;;;;;5075346;28;20436;-82
2023/04/18 01:50:12;;;;;;;26.52;19.60;;;;;;;;;;5074481;28;20439;-82
2023/04/18 01:52:38;;;;;;;27.38;20.10;;;;;;;;;;5073476;28;20426;-82
2023/04/18 01:55:05;;;;;;;26.60;19.63;;;;;;;;;;5069187;28;20419;-83
2023/04/18 01:57:35;;;;;;;27.35;18.75;;;;;;;;;;5077954;28;20479;-83
2023/04/18 02:00:03;;;;;;;28.00;18.23;;;;;;;;;;5074746;28;20441;-83
2023/04/18 02:02:29;;;;;;;27.80;19.40;;;;;;;;;;5072205;28;20411;-83
2023/04/18 02:04:56;;;;;;;26.58;19.92;;;;;;;;;;5047106;28;20421;-83
2023/04/18 02:07:22;;;;;;;27.15;19.95;;;;;;;;;;5072151;28;20427;-83
2023/04/18 02:09:49;;;;;;;25.48;19.92;;;;;;;;;;5078040;28;20466;-83
2023/04/18 02:12:15;;;;;;;29.55;19.77;;;;;;;;;;5075328;28;20427;-83
2023/04/18 02:14:41;;;;;;;25.07;19.07;;;;;;;;;;5079086;28;20427;-83
2023/04/18 02:17:09;;;;;;;26.13;20.40;;;;;;;;;;5074757;28;20429;-82
2023/04/18 02:19:35;;;;;;;30.70;20.58;;;;;;;;;;5079083;28;20422;-83
2023/04/18 02:22:02;;;;;;;27.63;20.83;;;;;;;;;;5073345;28;20425;-82
2023/04/18 02:24:28;;;;;;;26.77;18.90;;;;;;;;;;5081658;28;20421;-82
2023/04/18 02:26:54;;;;;;;28.27;20.57;;;;;;;;;;5076958;28;20930;-83
2023/04/18 02:29:21;;;;;;;26.83;19.40;;;;;;;;;;5079843;28;20426;-83
2023/04/18 02:31:47;;;;;;;28.60;20.48;;;;;;;;;;5077784;28;20428;-83
2023/04/18 02:34:15;;;;;;;24.83;19.77;;;;;;;;;;5077877;28;20425;-83
2023/04/18 02:36:41;;;;;;;31.13;20.73;;;;;;;;;;5078828;28;20989;-83
2023/04/18 02:39:10;;;;;;;31.52;20.55;;;;;;;;;;5077141;28;20427;-83
2023/04/18 02:41:38;;;;;;;28.55;19.38;;;;;;;;;;5081470;28;20431;-83
2023/04/18 02:44:04;;;;;;;27.35;20.67;;;;;;;;;;5084021;28;20841;-83
2023/04/18 02:46:31;;;;;;;29.27;19.75;;;;;;;;;;5066511;28;20409;-83
2023/04/18 02:48:57;;;;;;;33.33;21.98;;;;;;;;;;5079760;28;20428;-83
2023/04/18 02:51:25;;;;;;;26.30;19.92;;;;;;;;;;5081468;28;20917;-83
2023/04/18 02:53:53;;;;;;;29.35;20.88;;;;;;;;;;5068953;28;20512;-83
2023/04/18 02:56:20;;;;;;;28.30;21.50;;;;;;;;;;5078491;28;20417;-83
2023/04/18 02:58:47;;;;;;;31.57;22.13;;;;;;;;;;5072853;28;20798;-82
2023/04/18 03:01:13;;;;;;;32.00;22.20;;;;;;;;;;5080388;28;20541;-83
2023/04/18 03:03:39;;;;;;;30.25;21.85;;;;;;;;;;5080036;28;20418;-83
2023/04/18 03:06:06;;;;;;;31.50;22.70;;;;;;;;;;5078972;28;20589;-83
2023/04/18 03:08:34;;;;;;;29.25;21.38;;;;;;;;;;5071670;28;20490;-82
2023/04/18 03:11:00;;;;;;;34.28;22.45;;;;;;;;;;5080252;28;20433;-82
2023/04/18 03:13:26;;;;;;;30.48;22.10;;;;;;;;;;5079072;28;20426;-83
2023/04/18 03:15:54;;;;;;;32.58;23.20;;;;;;;;;;5080240;28;20795;-83
2023/04/18 03:18:21;;;;;;;34.58;22.70;;;;;;;;;;5074534;28;20430;-83
2023/04/18 03:20:47;;;;;;;33.80;23.55;;;;;;;;;;5077935;28;20431;-83
2023/04/18 03:23:13;;;;;;;32.83;23.13;;;;;;;;;;5073965;28;21005;-83
2023/04/18 03:25:41;;;;;;;34.33;24.17;;;;;;;;;;5080406;28;20443;-82
2023/04/18 03:28:07;;;;;;;32.88;24.00;;;;;;;;;;5077585;28;20781;-83
2023/04/18 03:30:34;;;;;;;34.30;24.23;;;;;;;;;;5075905;28;20427;-83
2023/04/18 03:33:01;;;;;;;37.90;24.85;;;;;;;;;;5077148;28;20911;-83
2023/04/18 03:35:27;;;;;;;36.45;25.85;;;;;;;;;;5080999;28;20449;-83
2023/04/18 03:37:54;;;;;;;38.53;25.60;;;;;;;;;;5083087;28;20446;-82
2023/04/18 03:40:20;;;;;;;34.95;25.45;;;;;;;;;;5079554;28;20443;-83
2023/04/18 03:42:48;;;;;;;36.38;25.20;;;;;;;;;;5084882;28;20418;-83
2023/04/18 03:45:15;;;;;;;34.08;25.80;;;;;;;;;;5087198;28;20421;-82
2023/04/18 03:47:41;;;;;;;35.63;25.47;;;;;;;;;;5081034;28;20421;-83
2023/04/18 03:50:08;;;;;;;40.72;25.42;;;;;;;;;;5077642;28;20434;-82
2023/04/18 03:52:34;;;;;;;39.90;26.60;;;;;;;;;;5081058;28;20792;-83
2023/04/18 03:55:04;;;;;;;38.70;26.60;;;;;;;;;;5084278;28;20780;-83
2023/04/18 03:57:30;;;;;;;35.35;24.85;;;;;;;;;;5077804;28;20423;-82
2023/04/18 03:59:58;;;;;;;39.30;25.58;;;;;;;;;;5080565;28;20414;-83
2023/04/18 04:02:24;;;;;;;37.10;25.67;;;;;;;;;;5075213;28;20421;-83
2023/04/18 04:04:50;;;;;;;36.67;25.92;;;;;;;;;;5075117;28;20434;-83
2023/04/18 04:07:17;;;;;;;34.08;25.20;;;;;;;;;;5079969;28;20430;-83
2023/04/18 04:09:43;;;;;;;31.98;24.25;;;;;;;;;;5077513;28;20419;-83
2023/04/18 04:12:09;;;;;;;35.70;24.73;;;;;;;;;;5078098;28;20427;-83
2023/04/18 04:14:36;;;;;;;37.20;25.00;;;;;;;;;;5078186;28;20929;-83
2023/04/18 04:17:04;;;;;;;34.70;24.65;;;;;;;;;;5069566;28;20952;-82
2023/04/18 04:19:30;;;;;;;33.33;23.05;;;;;;;;;;5071068;28;20422;-83
2023/04/18 04:21:56;;;;;;;33.58;22.52;;;;;;;;;;5080748;28;20780;-83
2023/04/18 04:24:23;;;;;;;28.63;21.67;;;;;;;;;;5071851;28;20427;-83
2023/04/18 04:26:50;;;;;;;31.30;21.97;;;;;;;;;;5077183;28;20457;-83
2023/04/18 04:29:17;;;;;;;33.55;23.13;;;;;;;;;;5046768;28;20420;-83
2023/04/18 04:31:44;;;;;;;31.30;23.03;;;;;;;;;;5076086;28;20435;-83
2023/04/18 04:34:11;;;;;;;32.40;23.08;;;;;;;;;;5074431;28;20430;-83
2023/04/18 04:36:40;;;;;;;33.25;21.88;;;;;;;;;;5084293;28;20428;-83
2023/04/18 04:39:07;;;;;;;30.50;21.40;;;;;;;;;;5080521;28;20475;-83
2023/04/18 04:41:36;;;;;;;34.60;22.83;;;;;;;;;;5076372;28;20423;-83
2023/04/18 04:44:03;;;;;;;28.50;22.30;;;;;;;;;;5076586;28;20430;-83
2023/04/18 04:46:29;;;;;;;31.60;22.60;;;;;;;;;;5080773;28;20425;-83
2023/04/18 04:48:55;;;;;;;27.92;22.00;;;;;;;;;;5079379;28;20992;-83
2023/04/18 04:51:23;;;;;;;33.20;22.20;;;;;;;;;;5063317;28;20459;-82
2023/04/18 04:53:50;;;;;;;38.47;23.30;;;;;;;;;;5071805;28;20420;-83
2023/04/18 04:56:16;;;;;;;31.33;22.08;;;;;;;;;;5079590;28;20951;-83
2023/04/18 04:58:43;;;;;;;35.53;23.10;;;;;;;;;;5082201;28;21024;-80
2023/04/18 05:01:11;;;;;;;32.60;22.73;;;;;;;;;;5079453;28;20423;-80
2023/04/18 05:03:37;;;;;;;33.05;22.30;;;;;;;;;;5076822;28;20787;-81
2023/04/18 05:06:04;;;;;;;33.50;23.75;;;;;;;;;;5083916;28;20422;-82
2023/04/18 05:08:31;;;;;;;32.33;22.50;;;;;;;;;;5074520;28;20422;-82
2023/04/18 05:10:58;;;;;;;35.17;22.77;;;;;;;;;;5078607;28;20420;-81
2023/04/18 05:13:24;;;;;;;30.77;22.70;;;;;;;;;;5078069;28;20415;-81
2023/04/18 05:15:52;;;;;;;34.00;24.00;;;;;;;;;;5074685;28;20427;-82
2023/04/18 05:18:19;;;;;;;37.15;23.70;;;;;;;;;;5074892;28;20412;-82
2023/04/18 05:20:45;;;;;;;31.02;22.83;;;;;;;;;;5080473;28;20447;-82
2023/04/18 05:23:12;;;;;;;32.90;23.88;;;;;;;;;;5072878;28;20426;-82
2023/04/18 05:25:40;;;;;;;33.60;23.60;;;;;;;;;;5078294;28;20436;-82
2023/04/18 05:28:08;;;;;;;33.20;23.83;;;;;;;;;;5079714;28;20781;-82
2023/04/18 05:30:34;;;;;;;34.38;23.13;;;;;;;;;;5077316;28;20436;-82
2023/04/18 05:33:00;;;;;;;31.20;22.85;;;;;;;;;;5077249;28;20402;-82
2023/04/18 05:35:27;;;;;;;36.95;23.27;;;;;;;;;;5079514;28;20935;-82
2023/04/18 05:37:54;;;;;;;32.75;23.25;;;;;;;;;;5071730;28;20422;-82
2023/04/18 05:40:21;;;;;;;32.25;23.00;;;;;;;;;;5074456;28;20430;-83
2023/04/18 05:42:49;;;;;;;28.83;21.55;;;;;;;;;;5066220;28;20428;-81
2023/04/18 05:45:16;;;;;;;30.13;21.25;;;;;;;;;;5077552;28;20435;-80
2023/04/18 05:47:42;;;;;;;29.85;21.60;;;;;;;;;;5075879;28;20435;-81
2023/04/18 05:50:09;;;;;;;33.37;21.73;;;;;;;;;;5078008;28;20427;-82
2023/04/18 05:52:36;;;;;;;31.85;21.30;;;;;;;;;;5070525;28;20423;-83
2023/04/18 05:55:03;;;;;;;29.45;20.30;;;;;;;;;;5075307;28;20425;-82
2023/04/18 05:57:29;;;;;;;28.20;20.20;;;;;;;;;;5068613;28;20425;-83
2023/04/18 05:59:57;;;;;;;29.55;20.50;;;;;;;;;;5074614;28;20435;-82
2023/04/18 06:02:25;;;;;;;26.40;18.90;;;;;;;;;;5071436;28;20429;-82
2023/04/18 06:04:52;;;;;;;23.45;17.60;;;;;;;;;;5079435;28;20907;-82
2023/04/18 06:07:20;;;;;;;27.42;19.17;;;;;;;;;;5079662;28;20919;-83
2023/04/18 06:09:47;;;;;;;26.63;19.17;;;;;;;;;;5074793;28;20426;-82
2023/04/18 06:12:14;;;;;;;25.70;19.05;;;;;;;;;;5081091;28;20425;-82
2023/04/18 06:14:40;;;;;;;25.13;17.27;;;;;;;;;;5081821;28;20412;-82
2023/04/18 06:17:08;;;;;;;26.13;18.65;;;;;;;;;;5072988;28;20432;-82
2023/04/18 06:19:35;;;;;;;27.10;18.13;;;;;;;;;;5074555;28;20425;-82
2023/04/18 06:22:02;;;;;;;25.27;17.77;;;;;;;;;;5072313;28;20437;-82
2023/04/18 06:24:29;;;;;;;25.95;17.13;;;;;;;;;;5068890;28;20804;-82
2023/04/18 06:26:56;;;;;;;22.13;16.60;;;;;;;;;;5070022;28;20441;-82
2023/04/18 06:29:22;;;;;;;22.33;16.80;;;;;;;;;;5075434;28;20426;-82
2023/04/18 06:31:49;;;;;;;23.85;17.10;;;;;;;;;;5072086;28;20934;-82
2023/04/18 06:34:17;;;;;;;21.02;16.60;;;;;;;;;;5080999;28;20441;-82
2023/04/18 06:36:43;;;;;;;23.80;16.88;;;;;;;;;;5078399;28;20410;-80
2023/04/18 06:39:09;;;;;;;21.23;16.50;;;;;;;;;;5062022;28;20475;-81
2023/04/18 06:41:36;;;;;;;23.48;16.75;;;;;;;;;;5074545;28;20418;-82
2023/04/18 06:44:02;;;;;;;23.90;16.30;;;;;;;;;;5076448;28;20416;-83
2023/04/18 06:46:29;;;;;;;21.48;16.05;;;;;;;;;;5076539;28;20431;-80
2023/04/18 06:48:56;;;;;;;21.02;15.98;;;;;;;;;;5070307;28;20427;-82
2023/04/18 06:51:24;;;;;;;21.20;15.15;;;;;;;;;;5078529;28;20413;-82
2023/04/18 06:53:52;;;;;;;25.20;16.48;;;;;;;;;;5077284;28;20436;-81
2023/04/18 06:56:19;;;;;;;21.50;15.35;;;;;;;;;;5075756;28;20439;-80
2023/04/18 06:58:45;;;;;;;21.35;15.88;;;;;;;;;;5076983;28;20450;-82
2023/04/18 07:01:12;;;;;;;17.67;14.60;;;;;;;;;;5078846;28;20914;-81
2023/04/18 07:03:38;;;;;;;19.10;14.85;;;;;;;;;;5084815;28;20416;-81
2023/04/18 07:06:07;;;;;;;23.92;15.80;;;;;;;;;;5080289;28;20427;-81
2023/04/18 07:08:35;;;;;;;19.38;14.30;;;;;;;;;;5082559;28;20837;-83
2023/04/18 07:11:01;;;;;;;16.55;13.48;;;;;;;;;;5082103;28;20423;-82
2023/04/18 07:13:28;;;;;;;17.85;13.75;;;;;;;;;;5081724;28;20415;-80
2023/04/18 07:15:54;;;;;;;17.27;13.40;;;;;;;;;;5079731;28;20427;-80
2023/04/18 07:18:21;;;;;;;16.93;14.20;;;;;;;;;;5082159;28;20838;-83
2023/04/18 07:20:47;;;;;;;15.02;13.20;;;;;;;;;;5079742;28;21111;-80
2023/04/18 07:23:14;;;;;;;17.52;12.50;;;;;;;;;;5076736;28;20407;-80
2023/04/18 07:25:42;;;;;;;14.32;12.00;;;;;;;;;;5081933;28;20410;-80
2023/04/18 07:28:08;;;;;;;16.48;12.70;;;;;;;;;;5077197;28;20784;-81
2023/04/18 07:30:35;;;;;;;17.80;13.35;;;;;;;;;;5080103;28;20431;-81
2023/04/18 07:33:01;;;;;;;16.58;12.50;;;;;;;;;;5080695;28;20413;-80
2023/04/18 07:35:27;;;;;;;18.02;13.02;;;;;;;;;;5074034;28;20427;-81
2023/04/18 07:37:54;;;;;;;19.03;12.97;;;;;;;;;;5084329;28;20404;-80
2023/04/18 07:40:20;;;;;;;17.25;13.35;;;;;;;;;;5081073;28;20518;-82
2023/04/18 07:42:48;;;;;;;16.35;13.23;;;;;;;;;;5114465;27;20895;-82
2023/04/18 07:45:15;;;;;;;19.83;13.70;;;;;;;;;;5121274;27;20424;-82
2023/04/18 07:47:41;;;;;;;15.82;12.80;;;;;;;;;;5119091;27;20485;-80
2023/04/18 07:50:09;;;;;;;16.45;12.45;;;;;;;;;;5070250;28;20426;-80
2023/04/18 07:52:35;;;;;;;15.80;12.40;;;;;;;;;;5066858;28;20439;-81
2023/04/18 07:55:01;;;;;;;13.80;12.10;;;;;;;;;;5066005;28;20427;-80
2023/04/18 07:57:28;;;;;;;16.13;12.00;;;;;;;;;;5064226;28;20431;-80
2023/04/18 07:59:55;;;;;;;17.98;12.77;;;;;;;;;;5067631;28;20419;-80
2023/04/18 08:02:22;;;;;;;17.17;12.80;;;;;;;;;;5066323;28;20508;-80
2023/04/18 08:04:50;;;;;;;17.70;13.70;;;;;;;;;;5070446;28;21086;-82
2023/04/18 08:07:17;;;;;;;17.57;13.43;;;;;;;;;;5069855;28;20489;-83
2023/04/18 08:09:43;;;;;;;16.85;12.40;;;;;;;;;;5067806;28;20412;-82
2023/04/18 08:12:09;;;;;;;18.95;13.52;;;;;;;;;;5064260;28;20420;-81
2023/04/18 08:14:36;;;;;;;18.77;13.23;;;;;;;;;;5069569;28;20436;-81
2023/04/18 08:17:04;;;;;;;19.77;14.02;;;;;;;;;;5070554;28;20435;-82
2023/04/18 08:19:30;;;;;;;21.65;14.70;;;;;;;;;;5062179;28;20427;-80
2023/04/18 08:22:06;;;;;;;22.95;14.60;;;;;;;;;;5066440;28;20812;-81
2023/04/18 08:24:32;;;;;;;17.13;13.35;;;;;;;;;;5066689;28;20434;-83
2023/04/18 08:26:59;;;;;;;17.60;14.02;;;;;;;;;;5067108;28;20827;-82
2023/04/18 08:29:26;;;;;;;18.80;13.87;;;;;;;;;;5064659;28;20785;-83
2023/04/18 08:31:52;;;;;;;17.90;13.30;;;;;;;;;;5058108;28;20432;-82
2023/04/18 08:34:20;;;;;;;20.15;13.60;;;;;;;;;;5064960;28;20412;-82
2023/04/18 08:36:46;;;;;;;14.50;12.73;;;;;;;;;;5064874;28;20442;-82
2023/04/18 08:39:13;;;;;;;15.10;13.00;;;;;;;;;;5061510;28;20432;-83
2023/04/18 08:41:42;;;;;;;15.88;11.63;;;;;;;;;;5065720;28;20436;-81
2023/04/18 08:44:08;;;;;;;14.55;11.60;;;;;;;;;;5065348;28;20781;-81
2023/04/18 08:46:36;;;;;;;14.50;11.68;;;;;;;;;;5063149;28;20506;-81
2023/04/18 08:49:03;;;;;;;13.95;10.95;;;;;;;;;;5093481;27;20876;-81
2023/04/18 08:51:32;;;;;;;12.27;10.23;;;;;;;;;;5117066;27;20954;-81
2023/04/18 08:54:03;;;;;;;12.63;10.30;;;;;;;;;;5118197;27;20424;-82
2023/04/18 08:56:29;;;;;;;10.75;8.95;;;;;;;;;;5113544;27;20513;-81
2023/04/18 08:58:59;;;;;;;9.98;8.50;;;;;;;;;;5122259;27;20780;-82
2023/04/18 09:01:40;;;;;;;11.63;8.20;;;;;;;;;;5115661;27;20434;-82
2023/04/18 09:04:06;;;;;;;10.95;7.85;;;;;;;;;;5119701;27;20413;-82
2023/04/18 09:06:34;;;;;;;10.90;9.00;;;;;;;;;;5117440;27;20499;-81
2023/04/18 09:09:03;;;;;;;9.40;8.40;;;;;;;;;;5117572;27;20400;-81
2023/04/18 09:11:31;;;;;;;9.07;7.72;;;;;;;;;;5119421;27;20497;-81
2023/04/18 09:13:58;;;;;;;9.03;7.93;;;;;;;;;;5117859;27;20414;-81
2023/04/18 09:16:26;;;;;;;8.10;6.70;;;;;;;;;;5121417;27;20421;-80
2023/04/18 09:19:07;;;;;;;8.77;7.07;;;;;;;;;;5120145;27;20442;-83
2023/04/18 09:21:36;;;;;;;9.85;6.68;;;;;;;;;;5113419;27;20415;-81
2023/04/18 09:24:16;;;;;;;6.53;5.28;;;;;;;;;;5115672;27;20412;-81
2023/04/18 09:26:42;;;;;;;6.40;4.88;;;;;;;;;;5083562;28;20448;-82
2023/04/18 09:29:10;;;;;;;6.03;5.40;;;;;;;;;;5121184;27;20416;-81
2023/04/18 09:31:50;;;;;;;6.78;4.55;;;;;;;;;;5117170;27;20416;-81
2023/04/18 09:34:23;;;;;;;4.50;4.10;;;;;;;;;;5114890;27;20418;-80
2023/04/18 09:37:05;;;;;;;5.88;4.30;;;;;;;;;;5120016;27;20454;-80
2023/04/18 09:39:32;;;;;;;5.25;3.78;;;;;;;;;;5120005;27;20420;-82
2023/04/18 09:41:58;;;;;;;4.60;3.80;;;;;;;;;;5122986;27;20429;-80
2023/04/18 09:44:26;;;;;;;4.03;3.58;;;;;;;;;;5118941;27;21004;-83
2023/04/18 09:46:53;;;;;;;4.60;4.00;;;;;;;;;;5096180;28;20420;-80
2023/04/18 09:49:20;;;;;;;4.35;3.60;;;;;;;;;;5088116;28;20447;-81
2023/04/18 09:51:46;;;;;;;4.83;4.07;;;;;;;;;;5099748;28;20471;-80
2023/04/18 09:54:15;;;;;;;5.15;4.30;;;;;;;;;;5080974;28;20414;-80
2023/04/18 09:56:43;;;;;;;5.10;4.05;;;;;;;;;;5097938;28;20428;-80
2023/04/18 09:59:10;;;;;;;4.60;3.72;;;;;;;;;;5079572;28;20420;-81
2023/04/18 10:01:36;;;;;;;4.20;3.80;;;;;;;;;;5099137;28;20409;-80
2023/04/18 10:04:05;;;;;;;4.40;3.80;;;;;;;;;;5100923;28;20408;-80
2023/04/18 10:06:33;;;;;;;6.20;4.70;;;;;;;;;;5100099;28;20445;-82
2023/04/18 10:09:03;;;;;;;5.43;4.70;;;;;;;;;;5097942;28;20914;-82
2023/04/18 10:11:31;;;;;;;4.47;4.07;;;;;;;;;;5096437;28;20946;-82
2023/04/18 10:14:00;;;;;;;4.68;4.28;;;;;;;;;;5078566;28;20417;-80
2023/04/18 10:16:27;;;;;;;4.90;4.40;;;;;;;;;;5098813;28;20420;-81
2023/04/18 10:18:54;;;;;;;5.47;4.15;;;;;;;;;;5091149;28;20950;-80
2023/04/18 10:21:21;;;;;;;4.90;4.40;;;;;;;;;;5096994;28;20510;-80
2023/04/18 10:23:49;;;;;;;5.13;4.70;;;;;;;;;;5076763;28;20390;-80
2023/04/18 10:26:16;;;;;;;5.77;5.27;;;;;;;;;;5097277;28;20786;-80
2023/04/18 10:28:51;;;;;;;5.65;5.15;;;;;;;;;;5092530;28;20781;-81
2023/04/18 10:31:18;;;;;;;7.45;5.90;;;;;;;;;;5097412;28;20408;-81
2023/04/18 10:33:48;;;;;;;7.43;5.60;;;;;;;;;;5081430;28;20416;-82
2023/04/18 10:36:15;;;;;;;6.60;5.90;;;;;;;;;;5101787;28;20548;-82
2023/04/18 10:38:48;;;;;;;6.93;6.10;;;;;;;;;;5096710;28;20947;-82
2023/04/18 10:41:15;;;;;;;8.50;7.10;;;;;;;;;;5097758;28;20426;-81
2023/04/18 10:44:00;;;;;;;7.20;6.45;;;;;;;;;;5070885;28;20407;-82
2023/04/18 10:46:28;;;;;;;8.30;7.38;;;;;;;;;;5074261;28;20434;-83
2023/04/18 10:49:10;;;;;;;8.23;7.32;;;;;;;;;;5092261;28;20426;-82
2023/04/18 10:51:36;;;;;;;8.30;7.50;;;;;;;;;;5077877;28;20772;-82
2023/04/18 10:54:04;;;;;;;10.23;7.85;;;;;;;;;;5084737;28;20425;-82
2023/04/18 10:56:30;;;;;;;8.50;7.40;;;;;;;;;;5074722;28;20443;-82
2023/04/18 10:59:01;;;;;;;10.05;7.28;;;;;;;;;;5077888;28;20415;-82
2023/04/18 11:01:31;;;;;;;8.52;7.63;;;;;;;;;;5079564;28;20438;-82
2023/04/18 11:03:57;;;;;;;10.20;7.93;;;;;;;;;;5078840;28;20424;-81
2023/04/18 11:06:24;;;;;;;8.57;7.75;;;;;;;;;;5078935;28;20431;-81
2023/04/18 11:08:52;;;;;;;9.93;8.10;;;;;;;;;;5076355;28;20428;-83
2023/04/18 11:11:19;;;;;;;11.73;8.50;;;;;;;;;;5078748;28;20524;-83
2023/04/18 11:13:55;;;;;;;9.98;7.95;;;;;;;;;;5080963;28;20493;-81
2023/04/18 11:16:26;;;;;;;9.27;8.00;;;;;;;;;;5080210;28;20446;-80
2023/04/18 11:18:54;;;;;;;10.48;9.00;;;;;;;;;;5078327;28;20459;-82
2023/04/18 11:21:20;;;;;;;11.02;8.60;;;;;;;;;;5079050;28;20435;-81
2023/04/18 11:23:47;;;;;;;10.57;8.80;;;;;;;;;;5080092;28;20417;-81
2023/04/18 11:26:18;;;;;;;9.70;8.80;;;;;;;;;;5081832;28;20441;-82
2023/04/18 11:28:50;;;;;;;10.55;9.55;;;;;;;;;;5079296;28;20936;-83
2023/04/18 11:31:17;;;;;;;12.75;10.60;;;;;;;;;;5079977;28;20433;-81
2023/04/18 11:33:46;;;;;;;10.82;9.77;;;;;;;;;;5077563;28;20410;-81
2023/04/18 11:36:13;;;;;;;11.00;9.90;;;;;;;;;;5084427;28;20414;-82
2023/04/18 11:38:40;;;;;;;12.57;9.70;;;;;;;;;;5080079;28;20431;-82
2023/04/18 11:41:11;;;;;;;11.32;9.20;;;;;;;;;;5078981;28;20439;-82
2023/04/18 11:43:41;;;;;;;11.10;9.70;;;;;;;;;;5078283;28;20414;-82
2023/04/18 11:46:08;;;;;;;11.68;9.73;;;;;;;;;;5082382;28;20456;-82
2023/04/18 11:48:34;;;;;;;11.40;9.80;;;;;;;;;;5087406;28;20445;-82
2023/04/18 11:51:02;;;;;;;11.98;10.20;;;;;;;;;;5099897;28;20420;-82
2023/04/18 11:53:34;;;;;;;11.98;10.30;;;;;;;;;;5103827;28;20937;-82
2023/04/18 11:56:02;;;;;;;10.63;9.30;;;;;;;;;;5099711;28;20428;-82
2023/04/18 11:58:33;;;;;;;11.38;9.50;;;;;;;;;;5103964;28;20412;-81
2023/04/18 12:01:00;;;;;;;14.63;9.55;;;;;;;;;;5081023;28;21007;-81
2023/04/18 12:03:27;;;;;;;10.30;9.30;;;;;;;;;;5096332;28;20934;-80
2023/04/18 12:05:58;;;;;;;10.68;9.35;;;;;;;;;;5105329;28;20408;-80
2023/04/18 12:08:25;;;;;;;9.88;8.98;;;;;;;;;;5099491;28;20422;-82
2023/04/18 12:10:54;;;;;;;10.27;9.18;;;;;;;;;;5107492;28;20420;-82
2023/04/18 12:13:24;;;;;;;11.65;8.80;;;;;;;;;;5099652;28;20412;-82
2023/04/18 12:15:50;;;;;;;12.93;10.23;;;;;;;;;;5098952;28;20508;-82
2023/04/18 12:18:18;;;;;;;11.05;9.32;;;;;;;;;;5095726;28;20793;-81
2023/04/18 12:20:49;;;;;;;11.73;9.70;;;;;;;;;;5100804;28;20433;-81
2023/04/18 12:23:34;;;;;;;10.50;9.40;;;;;;;;;;5094213;28;20440;-82
2023/04/18 12:26:03;;;;;;;13.27;10.15;;;;;;;;;;5095824;28;20436;-81
2023/04/18 12:28:29;;;;;;;11.40;9.38;;;;;;;;;;5098312;28;20410;-81
2023/04/18 12:30:56;;;;;;;10.97;9.87;;;;;;;;;;5097152;28;20430;-81
2023/04/18 12:33:22;;;;;;;10.63;9.55;;;;;;;;;;5101394;28;20417;-81
2023/04/18 12:35:49;;;;;;;11.10;9.98;;;;;;;;;;5098295;28;20452;-81
2023/04/18 12:38:19;;;;;;;11.82;9.32;;;;;;;;;;5100309;28;20414;-81
2023/04/18 12:40:45;;;;;;;10.00;9.00;;;;;;;;;;5103589;28;20453;-81
2023/04/18 12:43:13;;;;;;;12.37;9.00;;;;;;;;;;5070853;28;20468;-81
2023/04/18 12:45:39;;;;;;;9.43;8.45;;;;;;;;;;5099527;28;20410;-82
2023/04/18 12:48:06;;;;;;;9.45;8.43;;;;;;;;;;5100778;28;20415;-82
2023/04/18 12:50:32;;;;;;;9.10;8.10;;;;;;;;;;5073341;28;20419;-83
2023/04/18 12:53:00;;;;;;;10.02;6.80;;;;;;;;;;5075070;28;20925;-81
2023/04/18 12:55:27;;;;;;;10.05;8.45;;;;;;;;;;5080603;28;20435;-82
2023/04/18 12:57:54;;;;;;;11.63;8.43;;;;;;;;;;5075351;28;20419;-83
2023/04/18 13:00:23;;;;;;;8.70;7.80;;;;;;;;;;5073545;28;20427;-81
2023/04/18 13:02:49;;;;;;;8.40;7.20;;;;;;;;;;5078599;28;20901;-81
2023/04/18 13:05:16;;;;;;;8.57;7.47;;;;;;;;;;5084493;28;20434;-82
2023/04/18 13:07:46;;;;;;;8.25;6.40;;;;;;;;;;5078888;28;20443;-83
2023/04/18 13:10:13;;;;;;;6.53;5.40;;;;;;;;;;5076719;28;20427;-81
2023/04/18 13:12:39;;;;;;;6.30;5.70;;;;;;;;;;5077235;28;20447;-81
2023/04/18 13:15:07;;;;;;;6.23;5.63;;;;;;;;;;5077670;28;20435;-81
2023/04/18 13:17:35;;;;;;;6.20;5.60;;;;;;;;;;5076122;28;20411;-80
2023/04/18 13:20:03;;;;;;;6.93;5.60;;;;;;;;;;5077011;28;20803;-80
2023/04/18 13:22:30;;;;;;;5.95;5.22;;;;;;;;;;5079485;28;20504;-81
2023/04/18 13:24:56;;;;;;;6.05;5.55;;;;;;;;;;5073812;28;20419;-81
2023/04/18 13:27:23;;;;;;;5.83;4.93;;;;;;;;;;5080173;28;20466;-81
2023/04/18 13:29:49;;;;;;;6.25;5.65;;;;;;;;;;5074514;28;20424;-82
2023/04/18 13:32:16;;;;;;;6.53;5.80;;;;;;;;;;5078039;28;20907;-81
2023/04/18 13:34:45;;;;;;;6.75;5.70;;;;;;;;;;5076033;28;20422;-81
2023/04/18 13:37:11;;;;;;;6.80;6.10;;;;;;;;;;5076500;28;20439;-81
2023/04/18 13:39:38;;;;;;;6.32;5.72;;;;;;;;;;5078497;28;20428;-81
2023/04/18 13:42:06;;;;;;;7.15;6.15;;;;;;;;;;5081859;28;20405;-82
2023/04/18 13:44:33;;;;;;;6.28;5.65;;;;;;;;;;5078414;28;20423;-82
2023/04/18 13:47:00;;;;;;;6.35;5.75;;;;;;;;;;5072958;28;20432;-82
2023/04/18 13:49:26;;;;;;;7.97;5.95;;;;;;;;;;5080258;28;20458;-82
2023/04/18 13:51:56;;;;;;;8.30;6.10;;;;;;;;;;5075545;28;20416;-82
2023/04/18 13:54:22;;;;;;;6.90;5.68;;;;;;;;;;5074877;28;20406;-82
2023/04/18 13:56:49;;;;;;;6.90;5.90;;;;;;;;;;5080945;28;20501;-80
2023/04/18 13:59:17;;;;;;;7.45;6.30;;;;;;;;;;5078995;28;20476;-84
2023/04/18 14:01:44;;;;;;;6.63;5.93;;;;;;;;;;5072899;28;20414;-81
2023/04/18 14:04:11;;;;;;;6.40;5.80;;;;;;;;;;5078935;28;20446;-81
2023/04/18 14:06:38;;;;;;;8.57;5.95;;;;;;;;;;5079864;28;20421;-81
2023/04/18 14:09:06;;;;;;;7.60;5.95;;;;;;;;;;5081687;28;20422;-82
2023/04/18 14:11:33;;;;;;;7.10;6.40;;;;;;;;;;5080642;28;20419;-83
2023/04/18 14:13:59;;;;;;;7.10;6.40;;;;;;;;;;5077213;28;20947;-82
2023/04/18 14:16:27;;;;;;;8.60;5.97;;;;;;;;;;5083857;28;20434;-81
2023/04/18 14:18:53;;;;;;;8.30;6.83;;;;;;;;;;5085439;28;20439;-81
2023/04/18 14:21:20;;;;;;;8.15;6.28;;;;;;;;;;5078855;28;20789;-81
2023/04/18 14:23:48;;;;;;;7.20;6.10;;;;;;;;;;5082502;28;20422;-81
2023/04/18 14:26:16;;;;;;;7.30;6.60;;;;;;;;;;5087315;28;20446;-81
2023/04/18 14:28:42;;;;;;;7.22;6.53;;;;;;;;;;5080084;28;20433;-81